createdAt,value
2019-05-20T00:01:18.298Z,17.25
2019-05-20T00:02:31.144Z,17.18
2019-05-20T00:03:18.366Z,17.21
2019-05-20T00:04:18.364Z,17.14
2019-05-20T00:05:18.433Z,17.11
2019-05-20T00:06:18.497Z,17.16
2019-05-20T00:07:18.431Z,17.16
2019-05-20T00:08:18.462Z,17.14
2019-05-20T00:09:32.894Z,17.07
2019-05-20T00:10:18.504Z,17.12
2019-05-20T00:11:18.534Z,17.08
2019-05-20T00:12:18.546Z,17.04
2019-05-20T00:13:18.571Z,17.08
2019-05-20T00:14:18.637Z,17.01
2019-05-20T00:15:18.621Z,17.07
2019-05-20T00:16:18.642Z,17.07
2019-05-20T00:17:18.665Z,17.06
2019-05-20T00:18:18.437Z,17.11
2019-05-20T00:19:18.708Z,17.07
2019-05-20T00:20:18.729Z,17.07
2019-05-20T00:22:18.786Z,17.01
2019-05-20T00:24:18.825Z,16.91
2019-05-20T00:25:33.513Z,16.96
2019-05-20T00:26:18.873Z,16.93
2019-05-20T00:28:18.917Z,16.86
2019-05-20T00:29:18.943Z,16.82
2019-05-20T00:30:18.972Z,16.82
2019-05-20T00:31:18.989Z,16.86
2019-05-20T00:32:19.005Z,16.83
2019-05-20T00:33:19.033Z,16.82
2019-05-20T00:34:32.595Z,16.85
2019-05-20T00:35:19.078Z,16.88
2019-05-20T00:36:19.096Z,16.88
2019-05-20T00:37:18.911Z,16.81
2019-05-20T00:38:33.806Z,16.86
2019-05-20T00:39:19.189Z,16.82
2019-05-20T00:40:33.855Z,16.83
2019-05-20T00:41:19.218Z,16.81
2019-05-20T00:42:19.239Z,16.86
2019-05-20T00:43:19.260Z,16.81
2019-05-20T00:44:19.291Z,16.75
2019-05-20T00:45:19.307Z,16.81
2019-05-20T00:46:19.330Z,16.75
2019-05-20T00:47:19.346Z,16.78
2019-05-20T00:49:19.399Z,16.79
2019-05-20T00:50:19.544Z,16.66
2019-05-20T00:51:19.200Z,16.64
2019-05-20T00:52:19.489Z,16.67
2019-05-20T00:53:19.491Z,16.75
2019-05-20T00:54:19.511Z,16.66
2019-05-20T00:55:19.530Z,16.6
2019-05-20T00:57:19.575Z,16.56
2019-05-20T00:58:19.628Z,16.52
2019-05-20T00:59:19.629Z,16.52
2019-05-20T01:00:19.694Z,16.5
2019-05-20T01:01:19.669Z,16.52
2019-05-20T01:02:19.689Z,16.49
2019-05-20T01:03:19.712Z,16.43
2019-05-20T01:04:19.758Z,16.49
2019-05-20T01:05:19.774Z,16.52
2019-05-20T01:06:19.789Z,16.48
2019-05-20T01:07:19.803Z,16.46
2019-05-20T01:08:19.832Z,16.48
2019-05-20T01:09:19.858Z,16.45
2019-05-20T01:10:19.875Z,16.48
2019-05-20T01:11:19.894Z,16.57
2019-05-20T01:12:34.580Z,16.49
2019-05-20T01:13:19.992Z,16.46
2019-05-20T01:14:19.967Z,16.48
2019-05-20T01:16:20.029Z,16.43
2019-05-20T01:17:20.033Z,16.35
2019-05-20T01:18:20.052Z,16.48
2019-05-20T01:19:20.079Z,16.41
2019-05-20T01:20:20.103Z,16.41
2019-05-20T01:21:20.136Z,16.41
2019-05-20T01:22:20.145Z,16.42
2019-05-20T01:23:20.170Z,16.41
2019-05-20T01:24:20.194Z,16.39
2019-05-20T01:25:20.238Z,16.33
2019-05-20T01:26:20.241Z,16.42
2019-05-20T01:27:20.259Z,16.48
2019-05-20T01:28:34.943Z,16.39
2019-05-20T01:29:20.317Z,16.38
2019-05-20T01:30:20.323Z,16.43
2019-05-20T01:31:20.348Z,16.46
2019-05-20T01:32:20.124Z,16.45
2019-05-20T01:34:20.415Z,16.48
2019-05-20T01:35:20.442Z,16.38
2019-05-20T01:36:20.458Z,16.45
2019-05-20T01:37:20.485Z,16.41
2019-05-20T01:38:35.176Z,16.42
2019-05-20T01:39:20.617Z,16.41
2019-05-20T01:40:20.554Z,16.39
2019-05-20T01:41:35.236Z,16.42
2019-05-20T01:42:20.616Z,16.46
2019-05-20T01:43:20.617Z,16.41
2019-05-20T01:44:35.055Z,16.49
2019-05-20T01:45:20.664Z,16.42
2019-05-20T01:47:20.713Z,16.53
2019-05-20T01:48:20.506Z,16.49
2019-05-20T01:49:20.750Z,16.56
2019-05-20T01:50:35.445Z,16.52
2019-05-20T01:51:20.796Z,16.58
2019-05-20T01:52:20.843Z,16.5
2019-05-20T01:53:20.847Z,16.56
2019-05-20T01:54:20.870Z,16.49
2019-05-20T01:55:20.886Z,16.56
2019-05-20T01:56:35.574Z,16.53
2019-05-20T01:57:20.938Z,16.52
2019-05-20T01:58:20.961Z,16.53
2019-05-20T01:59:20.978Z,16.56
2019-05-20T02:00:35.672Z,16.57
2019-05-20T02:01:21.045Z,16.56
2019-05-20T02:02:21.060Z,16.49
2019-05-20T02:03:35.638Z,16.5
2019-05-20T02:05:21.196Z,16.46
2019-05-20T02:06:21.147Z,16.46
2019-05-20T02:07:35.827Z,16.43
2019-05-20T02:08:21.191Z,16.45
2019-05-20T02:09:21.206Z,16.53
2019-05-20T02:10:21.235Z,16.41
2019-05-20T02:11:21.256Z,16.45
2019-05-20T02:13:21.295Z,16.34
2019-05-20T02:14:21.319Z,16.33
2019-05-20T02:15:36.004Z,16.46
2019-05-20T02:16:21.363Z,16.35
2019-05-20T02:17:21.238Z,16.3
2019-05-20T02:18:21.430Z,16.31
2019-05-20T02:19:21.428Z,16.28
2019-05-20T02:20:21.473Z,16.27
2019-05-20T02:21:21.228Z,16.23
2019-05-20T02:22:21.618Z,16.2
2019-05-20T02:23:21.277Z,16.2
2019-05-20T02:24:36.208Z,16.21
2019-05-20T02:25:21.569Z,16.28
2019-05-20T02:26:21.337Z,16.24
2019-05-20T02:27:21.610Z,16.17
2019-05-20T02:28:21.658Z,16.2
2019-05-20T02:29:21.664Z,16.12
2019-05-20T02:31:36.399Z,16.14
2019-05-20T02:32:21.732Z,16.2
2019-05-20T02:33:21.754Z,16.17
2019-05-20T02:34:21.796Z,16.09
2019-05-20T02:35:21.809Z,16.12
2019-05-20T02:36:21.848Z,16.09
2019-05-20T02:37:21.854Z,16.09
2019-05-20T02:38:21.636Z,16.14
2019-05-20T02:39:25.598Z,16.07
2019-05-20T02:40:21.908Z,16.07
2019-05-20T02:41:21.930Z,16.09
2019-05-20T02:42:21.951Z,16.14
2019-05-20T02:43:21.974Z,16.05
2019-05-20T02:45:22.030Z,16.05
2019-05-20T02:46:22.040Z,16
2019-05-20T02:47:36.753Z,16
2019-05-20T02:48:22.093Z,16
2019-05-20T02:49:22.121Z,15.97
2019-05-20T02:50:22.256Z,16.04
2019-05-20T02:51:22.157Z,16
2019-05-20T02:52:22.179Z,16.04
2019-05-20T02:54:22.222Z,16
2019-05-20T02:55:22.277Z,15.84
2019-05-20T02:56:22.257Z,15.86
2019-05-20T02:57:36.954Z,15.83
2019-05-20T02:58:22.310Z,15.93
2019-05-20T02:59:22.329Z,15.9
2019-05-20T03:00:22.381Z,15.94
2019-05-20T03:01:26.617Z,15.94
2019-05-20T03:02:22.406Z,15.83
2019-05-20T03:03:37.077Z,15.9
2019-05-20T03:04:22.437Z,15.9
2019-05-20T03:05:22.461Z,15.8
2019-05-20T03:06:22.501Z,15.89
2019-05-20T03:07:22.520Z,15.82
2019-05-20T03:08:22.533Z,15.87
2019-05-20T03:09:22.559Z,15.84
2019-05-20T03:10:22.574Z,15.86
2019-05-20T03:11:22.594Z,15.86
2019-05-20T03:12:22.620Z,15.83
2019-05-20T03:13:22.641Z,15.84
2019-05-20T03:14:22.656Z,15.78
2019-05-20T03:15:22.676Z,15.86
2019-05-20T03:16:22.704Z,15.82
2019-05-20T03:17:22.725Z,15.83
2019-05-20T03:18:22.750Z,15.75
2019-05-20T03:19:37.441Z,15.76
2019-05-20T03:20:22.799Z,15.71
2019-05-20T03:21:22.825Z,15.76
2019-05-20T03:22:22.871Z,15.82
2019-05-20T03:23:22.898Z,15.84
2019-05-20T03:24:22.890Z,15.82
2019-05-20T03:25:22.908Z,15.83
2019-05-20T03:27:22.951Z,15.89
2019-05-20T03:28:23.008Z,15.83
2019-05-20T03:29:23.000Z,15.89
2019-05-20T03:30:23.031Z,15.84
2019-05-20T03:31:23.045Z,15.87
2019-05-20T03:32:23.081Z,15.84
2019-05-20T03:33:22.839Z,15.87
2019-05-20T03:35:01.263Z,15.92
2019-05-20T03:35:37.832Z,15.84
2019-05-20T03:36:23.159Z,15.89
2019-05-20T03:38:23.215Z,15.86
2019-05-20T03:39:23.233Z,15.86
2019-05-20T03:40:23.286Z,15.9
2019-05-20T03:41:23.261Z,15.93
2019-05-20T03:43:23.329Z,15.96
2019-05-20T03:44:23.326Z,15.93
2019-05-20T03:45:23.347Z,15.93
2019-05-20T03:46:23.396Z,16.08
2019-05-20T03:47:23.395Z,16.07
2019-05-20T03:48:23.420Z,16.04
2019-05-20T03:49:23.452Z,16.09
2019-05-20T03:50:38.137Z,16.09
2019-05-20T03:51:23.257Z,16.2
2019-05-20T03:52:23.512Z,16.3
2019-05-20T03:53:23.539Z,16.2
2019-05-20T03:54:23.561Z,16.34
2019-05-20T03:55:23.589Z,16.28
2019-05-20T03:57:23.620Z,16.33
2019-05-20T03:58:23.678Z,16.3
2019-05-20T03:59:23.681Z,16.34
2019-05-20T04:00:23.699Z,16.28
2019-05-20T04:01:23.709Z,16.45
2019-05-20T04:02:23.742Z,16.34
2019-05-20T04:03:23.753Z,16.28
2019-05-20T04:04:27.528Z,16.38
2019-05-20T04:05:38.471Z,16.45
2019-05-20T04:06:23.819Z,16.5
2019-05-20T04:07:23.867Z,16.48
2019-05-20T04:08:23.891Z,16.43
2019-05-20T04:09:23.891Z,16.46
2019-05-20T04:10:23.932Z,16.49
2019-05-20T04:11:23.945Z,16.49
2019-05-20T04:12:23.956Z,16.56
2019-05-20T04:13:23.992Z,16.57
2019-05-20T04:14:24.030Z,16.61
2019-05-20T04:15:24.028Z,16.63
2019-05-20T04:16:24.042Z,16.66
2019-05-20T04:17:24.078Z,16.78
2019-05-20T04:18:24.105Z,16.75
2019-05-20T04:19:24.146Z,16.82
2019-05-20T04:20:24.143Z,16.82
2019-05-20T04:21:24.168Z,16.91
2019-05-20T04:22:38.854Z,17.01
2019-05-20T04:23:24.308Z,17.04
2019-05-20T04:24:24.229Z,17.01
2019-05-20T04:25:24.013Z,17.15
2019-05-20T04:26:24.284Z,17.01
2019-05-20T04:28:24.336Z,17.01
2019-05-20T04:29:24.356Z,17.06
2019-05-20T04:30:39.027Z,17.07
2019-05-20T04:31:24.389Z,17.12
2019-05-20T04:32:24.409Z,17.18
2019-05-20T04:33:24.433Z,17.16
2019-05-20T04:34:24.206Z,17.18
2019-05-20T04:35:27.908Z,17.16
2019-05-20T04:36:24.502Z,17.22
2019-05-20T04:37:24.530Z,17.25
2019-05-20T04:39:24.568Z,17.19
2019-05-20T04:40:24.601Z,17.19
2019-05-20T04:41:24.610Z,17.51
2019-05-20T04:42:24.643Z,17.79
2019-05-20T04:43:24.700Z,17.87
2019-05-20T04:44:24.445Z,18.29
2019-05-20T04:45:24.760Z,18.75
2019-05-20T04:46:24.751Z,19.11
2019-05-20T04:47:24.832Z,19.29
2019-05-20T04:48:24.780Z,19.5
2019-05-20T04:49:24.803Z,19.77
2019-05-20T04:50:24.843Z,20.17
2019-05-20T04:51:24.867Z,20.32
2019-05-20T04:52:24.887Z,20.43
2019-05-20T04:53:24.904Z,20.58
2019-05-20T04:54:39.584Z,20.92
2019-05-20T04:55:24.976Z,21.1
2019-05-20T04:56:28.888Z,21.03
2019-05-20T04:57:25.001Z,21.01
2019-05-20T04:58:25.024Z,21.06
2019-05-20T04:59:25.064Z,20.97
2019-05-20T05:00:24.831Z,20.82
2019-05-20T05:01:25.098Z,20.59
2019-05-20T05:02:25.121Z,20.48
2019-05-20T05:03:25.160Z,20.36
2019-05-20T05:04:25.176Z,20.24
2019-05-20T05:05:41.523Z,20.51
2019-05-20T05:06:25.221Z,20.39
2019-05-20T05:07:39.901Z,20.16
2019-05-20T05:08:25.280Z,20.16
2019-05-20T05:09:25.284Z,20.24
2019-05-20T05:10:40.001Z,20.39
2019-05-20T05:11:25.380Z,20.58
2019-05-20T05:12:25.362Z,20.82
2019-05-20T05:13:25.449Z,20.89
2019-05-20T05:14:25.421Z,20.67
2019-05-20T05:15:25.436Z,20.67
2019-05-20T05:16:25.466Z,21.19
2019-05-20T05:17:25.530Z,21.8
2019-05-20T05:18:25.517Z,22.37
2019-05-20T05:20:25.562Z,22.09
2019-05-20T05:21:40.252Z,22.7
2019-05-20T05:22:40.281Z,22.86
2019-05-20T05:23:25.653Z,22.79
2019-05-20T05:24:40.329Z,23.02
2019-05-20T05:25:40.392Z,23.13
2019-05-20T05:26:25.725Z,23.7
2019-05-20T05:27:25.749Z,23.98
2019-05-20T05:28:40.445Z,24.13
2019-05-20T05:29:25.818Z,23.7
2019-05-20T05:30:25.839Z,23.65
2019-05-20T05:31:25.855Z,23.61
2019-05-20T05:32:25.885Z,23.35
2019-05-20T05:33:25.933Z,23.72
2019-05-20T05:34:25.938Z,23.87
2019-05-20T05:35:52.175Z,23.68
2019-05-20T05:36:25.990Z,23.5
2019-05-20T05:37:26.024Z,22.97
2019-05-20T05:38:26.039Z,22.65
2019-05-20T05:39:26.071Z,22.7
2019-05-20T05:40:26.100Z,22.73
2019-05-20T05:41:40.812Z,23.25
2019-05-20T05:42:26.149Z,23.95
2019-05-20T05:43:26.179Z,25.1
2019-05-20T05:44:26.206Z,25.97
2019-05-20T05:45:29.139Z,27.1
2019-05-20T05:46:26.259Z,27.63
2019-05-20T05:47:26.300Z,27.7
2019-05-20T05:48:26.328Z,27.32
2019-05-20T05:49:26.353Z,27.03
2019-05-20T05:50:26.376Z,27.31
2019-05-20T05:51:26.411Z,26.77
2019-05-20T05:52:27.806Z,26.37
2019-05-20T05:53:26.503Z,25.61
2019-05-20T05:54:26.500Z,25.23
2019-05-20T05:55:26.526Z,24.53
2019-05-20T05:56:26.561Z,24.42
2019-05-20T05:57:41.258Z,24.43
2019-05-20T05:58:26.665Z,24.37
2019-05-20T05:59:26.645Z,24.16
2019-05-20T06:00:26.686Z,24.21
2019-05-20T06:02:26.796Z,24.95
2019-05-20T06:03:26.768Z,25.18
2019-05-20T06:04:26.541Z,25.08
2019-05-20T06:05:26.825Z,25.21
2019-05-20T06:06:26.849Z,24.76
2019-05-20T06:07:26.880Z,24.76
2019-05-20T06:08:26.961Z,24.93
2019-05-20T06:11:26.999Z,25.14
2019-05-20T06:12:41.712Z,25.23
2019-05-20T06:13:41.722Z,25.79
2019-05-20T06:14:26.852Z,26.05
2019-05-20T06:15:27.125Z,25.7
2019-05-20T06:16:41.097Z,25.77
2019-05-20T06:18:27.221Z,26.44
2019-05-20T06:19:26.996Z,27.14
2019-05-20T06:20:27.269Z,28.25
2019-05-20T06:21:27.310Z,29.19
2019-05-20T06:22:27.327Z,29.61
2019-05-20T06:23:27.362Z,29.28
2019-05-20T06:24:27.144Z,28.52
2019-05-20T06:25:27.183Z,28.59
2019-05-20T06:26:27.455Z,28.48
2019-05-20T06:27:27.485Z,27.81
2019-05-20T06:28:27.520Z,27.17
2019-05-20T06:29:42.233Z,26.75
2019-05-20T06:30:27.586Z,26.97
2019-05-20T06:31:27.614Z,26.92
2019-05-20T06:32:27.656Z,27.54
2019-05-20T06:33:27.680Z,27.7
2019-05-20T06:34:27.609Z,28.15
2019-05-20T06:35:27.749Z,28.34
2019-05-20T06:37:27.817Z,28.77
2019-05-20T06:38:27.851Z,29.27
2019-05-20T06:39:27.896Z,29.36
2019-05-20T06:41:42.612Z,29.28
2019-05-20T06:42:27.986Z,29.57
2019-05-20T06:43:28.017Z,29.12
2019-05-20T06:44:28.046Z,29.36
2019-05-20T06:45:42.777Z,29.18
2019-05-20T06:46:28.112Z,28.44
2019-05-20T06:47:28.148Z,28.24
2019-05-20T06:48:28.181Z,27.74
2019-05-20T06:49:28.215Z,27.9
2019-05-20T06:50:31.869Z,27.87
2019-05-20T06:51:28.278Z,27.85
2019-05-20T06:52:40.771Z,27.79
2019-05-20T06:53:28.349Z,28.09
2019-05-20T06:54:28.432Z,28.95
2019-05-20T06:55:28.423Z,29.51
2019-05-20T06:56:28.452Z,29.58
2019-05-20T06:57:28.820Z,28.81
2019-05-20T06:58:28.522Z,28
2019-05-20T06:59:28.558Z,28.11
2019-05-20T07:00:43.255Z,28.54
2019-05-20T07:01:28.631Z,27.67
2019-05-20T07:02:28.671Z,27.74
2019-05-20T07:03:28.693Z,27.72
2019-05-20T07:04:28.476Z,27.94
2019-05-20T07:05:28.759Z,28.71
2019-05-20T07:06:47.748Z,29.33
2019-05-20T07:07:28.835Z,30.13
2019-05-20T07:08:28.799Z,30.58
2019-05-20T07:09:28.977Z,30.27
2019-05-20T07:10:28.928Z,30.31
2019-05-20T07:11:28.971Z,30.1
2019-05-20T07:12:44.917Z,30.98
2019-05-20T07:13:29.028Z,31.2
2019-05-20T07:14:28.817Z,31.01
2019-05-20T07:15:28.849Z,30.53
2019-05-20T07:17:29.182Z,30.7
2019-05-20T07:18:32.266Z,30.89
2019-05-20T07:19:29.237Z,30.94
2019-05-20T07:20:29.274Z,30.67
2019-05-20T07:21:29.306Z,31.21
2019-05-20T07:22:29.343Z,31.56
2019-05-20T07:23:29.375Z,31.75
2019-05-20T07:24:29.159Z,32.23
2019-05-20T07:25:29.624Z,32.52
2019-05-20T07:26:29.483Z,32.57
2019-05-20T07:28:29.553Z,30.77
2019-05-20T07:29:29.334Z,30.72
2019-05-20T07:30:29.619Z,30.84
2019-05-20T07:31:29.654Z,30.77
2019-05-20T07:32:44.355Z,31.39
2019-05-20T07:34:29.518Z,30.92
2019-05-20T07:35:35.391Z,30.08
2019-05-20T07:36:29.832Z,30.04
2019-05-20T07:37:29.687Z,30.27
2019-05-20T07:38:29.903Z,30.54
2019-05-20T07:39:29.953Z,30.62
2019-05-20T07:40:29.971Z,30.45
2019-05-20T07:41:30.018Z,31.09
2019-05-20T07:42:30.043Z,31.58
2019-05-20T07:43:30.137Z,31.58
2019-05-20T07:44:30.107Z,31.7
2019-05-20T07:45:30.195Z,32.13
2019-05-20T07:46:30.202Z,32.72
2019-05-20T07:47:30.229Z,32.72
2019-05-20T07:48:44.950Z,31.61
2019-05-20T07:50:30.330Z,30.82
2019-05-20T07:51:30.350Z,31.04
2019-05-20T07:52:30.401Z,30.86
2019-05-20T07:53:30.509Z,30.73
2019-05-20T07:54:30.452Z,30.54
2019-05-20T07:55:30.486Z,30.79
2019-05-20T07:56:30.561Z,31.29
2019-05-20T07:57:30.388Z,31.32
2019-05-20T07:58:33.548Z,31.48
2019-05-20T08:00:30.668Z,31.17
2019-05-20T08:01:30.716Z,31.54
2019-05-20T08:02:30.751Z,31.75
2019-05-20T08:03:30.765Z,31.69
2019-05-20T08:04:45.297Z,31.78
2019-05-20T08:05:30.833Z,31.75
2019-05-20T08:06:30.950Z,32.14
2019-05-20T08:07:54.656Z,31.73
2019-05-20T08:08:30.691Z,31.51
2019-05-20T08:09:31.015Z,31.29
2019-05-20T08:10:31.005Z,30.79
2019-05-20T08:11:31.059Z,30.15
2019-05-20T08:12:31.076Z,30.61
2019-05-20T08:13:31.107Z,31.07
2019-05-20T08:14:31.156Z,31.29
2019-05-20T08:15:31.200Z,31.61
2019-05-20T08:16:31.218Z,31.54
2019-05-20T08:17:31.248Z,31.89
2019-05-20T08:18:31.282Z,31.89
2019-05-20T08:19:31.345Z,31.76
2019-05-20T08:20:46.013Z,31.69
2019-05-20T08:21:31.476Z,32.21
2019-05-20T08:22:31.455Z,32.32
2019-05-20T08:23:31.458Z,32.44
2019-05-20T08:24:31.537Z,31.92
2019-05-20T08:25:31.521Z,31.28
2019-05-20T08:26:31.774Z,31.02
2019-05-20T08:27:31.585Z,30.75
2019-05-20T08:28:31.629Z,30.57
2019-05-20T08:29:31.672Z,30.08
2019-05-20T08:30:31.699Z,30.84
2019-05-20T08:31:31.732Z,30.73
2019-05-20T08:32:31.950Z,30.99
2019-05-20T08:33:31.812Z,31.25
2019-05-20T08:34:32.030Z,31.62
2019-05-20T08:35:46.540Z,31.93
2019-05-20T08:36:31.917Z,32.13
2019-05-20T08:37:49.075Z,32.07
2019-05-20T08:38:31.992Z,32.15
2019-05-20T08:39:31.995Z,32.08
2019-05-20T08:40:32.034Z,32.22
2019-05-20T08:41:32.337Z,31.62
2019-05-20T08:42:32.101Z,31.73
2019-05-20T08:43:32.137Z,31.75
2019-05-20T08:44:32.257Z,31.72
2019-05-20T08:45:32.210Z,31.38
2019-05-20T08:46:32.242Z,30.08
2019-05-20T08:47:46.948Z,29.85
2019-05-20T08:48:32.304Z,30.11
2019-05-20T08:49:32.526Z,29.95
2019-05-20T08:50:32.377Z,30.04
2019-05-20T08:51:32.443Z,30.67
2019-05-20T08:52:32.213Z,30.77
2019-05-20T08:53:32.593Z,31.51
2019-05-20T08:54:32.265Z,31.47
2019-05-20T08:55:32.579Z,31.36
2019-05-20T08:56:32.607Z,31.43
2019-05-20T08:57:32.616Z,31.65
2019-05-20T08:58:32.411Z,31.58
2019-05-20T08:59:32.683Z,31.73
2019-05-20T09:00:32.849Z,31.78
2019-05-20T09:01:32.795Z,31.91
2019-05-20T09:02:32.787Z,31.46
2019-05-20T09:03:35.233Z,31.09
2019-05-20T09:04:32.597Z,31.66
2019-05-20T09:05:33.361Z,31.43
2019-05-20T09:06:32.994Z,31.25
2019-05-20T09:08:32.977Z,30.55
2019-05-20T09:09:32.982Z,30.27
2019-05-20T09:10:32.804Z,30.29
2019-05-20T09:11:33.092Z,29.82
2019-05-20T09:12:47.783Z,29.52
2019-05-20T09:13:33.155Z,29.18
2019-05-20T09:14:33.341Z,29.05
2019-05-20T09:16:47.917Z,29.11
2019-05-20T09:17:33.535Z,29.18
2019-05-20T09:18:33.351Z,29.18
2019-05-20T09:19:33.152Z,29.58
2019-05-20T09:20:33.386Z,30.11
2019-05-20T09:21:33.410Z,30.31
2019-05-20T09:22:33.475Z,30.95
2019-05-20T09:23:48.132Z,31.73
2019-05-20T09:24:33.630Z,31.84
2019-05-20T09:25:33.533Z,32.22
2019-05-20T09:26:33.588Z,32.21
2019-05-20T09:27:33.633Z,32.43
2019-05-20T09:28:33.649Z,32.3
2019-05-20T09:29:33.690Z,32.21
2019-05-20T09:30:33.756Z,31.91
2019-05-20T09:31:33.753Z,31.56
2019-05-20T09:32:33.780Z,30.42
2019-05-20T09:33:33.597Z,29.71
2019-05-20T09:34:33.702Z,29.15
2019-05-20T09:35:34.242Z,28.74
2019-05-20T09:36:33.898Z,28.7
2019-05-20T09:37:33.933Z,28.74
2019-05-20T09:38:36.872Z,28.71
2019-05-20T09:39:48.670Z,29.02
2019-05-20T09:40:34.029Z,29.21
2019-05-20T09:41:34.068Z,29.46
2019-05-20T09:42:34.107Z,29.24
2019-05-20T09:43:34.140Z,28.81
2019-05-20T09:44:33.925Z,29
2019-05-20T09:45:34.177Z,29.46
2019-05-20T09:46:34.196Z,29.58
2019-05-20T09:48:34.263Z,30.11
2019-05-20T09:49:34.443Z,30.55
2019-05-20T09:50:34.329Z,30.82
2019-05-20T09:51:34.371Z,31.07
2019-05-20T09:52:34.382Z,31.04
2019-05-20T09:53:34.439Z,30.47
2019-05-20T09:54:34.443Z,30.31
2019-05-20T09:55:49.151Z,30.13
2019-05-20T09:56:34.544Z,30.08
2019-05-20T09:57:34.551Z,29.89
2019-05-20T09:58:34.575Z,30.29
2019-05-20T09:59:47.927Z,30.42
2019-05-20T10:00:34.628Z,30.31
2019-05-20T10:01:50.316Z,30.2
2019-05-20T10:02:42.371Z,30.13
2019-05-20T10:03:34.718Z,30.45
2019-05-20T10:04:34.537Z,30.45
2019-05-20T10:05:37.130Z,30.38
2019-05-20T10:06:34.824Z,30.26
2019-05-20T10:07:34.860Z,30.34
2019-05-20T10:08:47.659Z,30.23
2019-05-20T10:09:34.658Z,30.51
2019-05-20T10:10:49.627Z,30.84
2019-05-20T10:11:35.014Z,30.95
2019-05-20T10:12:50.814Z,31.2
2019-05-20T10:13:35.026Z,31.35
2019-05-20T10:14:35.130Z,31.58
2019-05-20T10:15:35.094Z,31.53
2019-05-20T10:16:35.120Z,31.57
2019-05-20T10:17:34.925Z,31.65
2019-05-20T10:18:57.440Z,31.28
2019-05-20T10:19:34.969Z,31.17
2019-05-20T10:20:35.262Z,31.1
2019-05-20T10:21:35.282Z,31.36
2019-05-20T10:22:35.390Z,31.09
2019-05-20T10:23:50.002Z,30.92
2019-05-20T10:24:35.444Z,31.06
2019-05-20T10:25:35.427Z,30.79
2019-05-20T10:26:35.184Z,30.76
2019-05-20T10:27:35.463Z,30.47
2019-05-20T10:28:35.493Z,30.42
2019-05-20T10:29:35.024Z,30.45
2019-05-20T10:30:35.553Z,30.83
2019-05-20T10:31:35.661Z,30.79
2019-05-20T10:33:39.282Z,30.79
2019-05-20T10:35:35.714Z,30.84
2019-05-20T10:36:35.779Z,30.67
2019-05-20T10:37:35.780Z,30.6
2019-05-20T10:38:35.969Z,30.42
2019-05-20T10:39:35.829Z,30.42
2019-05-20T10:40:35.880Z,30.19
2019-05-20T10:41:35.647Z,29.86
2019-05-20T10:43:35.947Z,29.87
2019-05-20T10:44:35.762Z,29.57
2019-05-20T10:45:36.013Z,29.53
2019-05-20T10:46:36.046Z,29.42
2019-05-20T10:48:36.103Z,29.3
2019-05-20T10:49:36.135Z,29.48
2019-05-20T10:50:36.145Z,29.53
2019-05-20T10:51:36.169Z,29.52
2019-05-20T10:52:36.207Z,29.15
2019-05-20T10:53:36.232Z,29.11
2019-05-20T10:54:36.013Z,29.11
2019-05-20T10:55:36.558Z,28.92
2019-05-20T10:56:36.315Z,28.83
2019-05-20T10:57:36.348Z,28.93
2019-05-20T10:58:51.047Z,29.06
2019-05-20T10:59:36.224Z,29
2019-05-20T11:00:36.447Z,28.77
2019-05-20T11:01:36.487Z,28.64
2019-05-20T11:02:36.516Z,28.51
2019-05-20T11:03:36.528Z,28.36
2019-05-20T11:04:40.120Z,28.14
2019-05-20T11:05:36.577Z,28.19
2019-05-20T11:06:51.294Z,28.09
2019-05-20T11:07:36.393Z,28.12
2019-05-20T11:08:36.667Z,27.96
2019-05-20T11:09:36.199Z,27.85
2019-05-20T11:10:36.733Z,28.06
2019-05-20T11:11:39.409Z,28.07
2019-05-20T11:12:36.986Z,28.02
2019-05-20T11:14:51.515Z,28.21
2019-05-20T11:15:36.910Z,28.18
2019-05-20T11:16:51.569Z,28.34
2019-05-20T11:17:36.932Z,28.22
2019-05-20T11:18:36.946Z,28.24
2019-05-20T11:19:36.502Z,28.22
2019-05-20T11:20:37.043Z,28.03
2019-05-20T11:21:37.040Z,27.82
2019-05-20T11:22:37.072Z,27.78
2019-05-20T11:23:51.777Z,27.27
2019-05-20T11:24:36.871Z,27.36
2019-05-20T11:25:51.832Z,27.29
2019-05-20T11:26:37.181Z,27.22
2019-05-20T11:27:51.966Z,27.12
2019-05-20T11:28:37.231Z,27.24
2019-05-20T11:29:36.779Z,27.34
2019-05-20T11:30:51.961Z,27.62
2019-05-20T11:32:37.354Z,27.67
2019-05-20T11:33:52.048Z,27.65
2019-05-20T11:34:37.842Z,27.77
2019-05-20T11:36:37.470Z,27.77
2019-05-20T11:37:37.495Z,27.85
2019-05-20T11:38:37.511Z,27.94
2019-05-20T11:39:53.347Z,28.07
2019-05-20T11:42:12.418Z,28.4
2019-05-20T11:42:37.625Z,28.51
2019-05-20T11:43:37.675Z,28.77
2019-05-20T11:44:37.442Z,28.74
2019-05-20T11:45:52.401Z,28.85
2019-05-20T11:46:37.745Z,28.68
2019-05-20T11:47:37.776Z,28.71
2019-05-20T11:48:37.795Z,28.68
2019-05-20T11:49:37.335Z,28.61
2019-05-20T11:50:37.855Z,28.33
2019-05-20T11:51:37.885Z,28.34
2019-05-20T11:52:37.953Z,27.96
2019-05-20T11:53:37.935Z,27.79
2019-05-20T11:54:37.766Z,27.72
2019-05-20T11:56:37.866Z,27.65
2019-05-20T11:57:37.879Z,27.66
2019-05-20T11:58:38.083Z,27.67
2019-05-20T11:59:38.154Z,27.63
2019-05-20T12:00:38.139Z,27.7
2019-05-20T12:01:38.172Z,27.67
2019-05-20T12:02:38.193Z,27.81
2019-05-20T12:04:38.254Z,27.99
2019-05-20T12:05:38.289Z,28.07
2019-05-20T12:06:52.976Z,28.14
2019-05-20T12:07:38.332Z,28.25
2019-05-20T12:09:53.359Z,27.7
2019-05-20T12:10:38.458Z,27.85
2019-05-20T12:11:38.450Z,27.62
2019-05-20T12:12:38.542Z,27.5
2019-05-20T12:13:38.546Z,27.66
2019-05-20T12:15:38.555Z,27.65
2019-05-20T12:16:38.336Z,27.67
2019-05-20T12:17:53.286Z,27.65
2019-05-20T12:18:38.639Z,27.72
2019-05-20T12:19:38.175Z,27.69
2019-05-20T12:20:38.448Z,27.67
2019-05-20T12:21:38.721Z,27.65
2019-05-20T12:22:38.764Z,27.9
2019-05-20T12:23:38.796Z,28.14
2019-05-20T12:24:38.559Z,28.22
2019-05-20T12:25:38.855Z,27.87
2019-05-20T12:26:38.883Z,27.99
2019-05-20T12:27:38.908Z,28.17
2019-05-20T12:28:38.975Z,28.21
2019-05-20T12:29:38.943Z,28.06
2019-05-20T12:30:38.799Z,27.62
2019-05-20T12:31:39.009Z,27.39
2019-05-20T12:32:39.040Z,27.51
2019-05-20T12:33:53.728Z,27.9
2019-05-20T12:34:38.949Z,27.87
2019-05-20T12:35:39.114Z,27.51
2019-05-20T12:36:39.148Z,27.67
2019-05-20T12:37:39.257Z,27.74
2019-05-20T12:38:39.194Z,27.97
2019-05-20T12:39:39.014Z,27.9
2019-05-20T12:40:39.252Z,27.99
2019-05-20T12:41:39.437Z,28.12
2019-05-20T12:42:39.320Z,28
2019-05-20T12:44:10.710Z,27.69
2019-05-20T12:44:39.114Z,27.66
2019-05-20T12:45:39.392Z,27.65
2019-05-20T12:46:39.420Z,27.28
2019-05-20T12:47:39.459Z,27.04
2019-05-20T12:48:39.500Z,26.75
2019-05-20T12:51:39.564Z,26.82
2019-05-20T12:52:39.665Z,26.91
2019-05-20T12:53:39.685Z,27.12
2019-05-20T12:54:39.657Z,27.43
2019-05-20T12:55:39.673Z,27.41
2019-05-20T12:56:39.726Z,27.36
2019-05-20T12:57:39.768Z,27.57
2019-05-20T12:58:39.507Z,27.39
2019-05-20T12:59:39.564Z,27.27
2019-05-20T13:00:39.842Z,27.12
2019-05-20T13:01:39.847Z,26.7
2019-05-20T13:02:39.868Z,26.81
2019-05-20T13:03:39.680Z,26.5
2019-05-20T13:04:39.913Z,26.29
2019-05-20T13:05:54.617Z,26.43
2019-05-20T13:06:39.982Z,26.4
2019-05-20T13:07:40.002Z,26.5
2019-05-20T13:08:40.028Z,26.32
2019-05-20T13:10:40.107Z,26.18
2019-05-20T13:11:40.105Z,26.18
2019-05-20T13:12:40.143Z,26.32
2019-05-20T13:13:40.269Z,26.35
2019-05-20T13:14:40.223Z,26.18
2019-05-20T13:15:40.261Z,26.1
2019-05-20T13:16:40.271Z,26.05
2019-05-20T13:17:46.281Z,26.05
2019-05-20T13:18:54.836Z,25.95
2019-05-20T13:19:39.943Z,25.69
2019-05-20T13:20:55.058Z,25.61
2019-05-20T13:21:40.416Z,25.58
2019-05-20T13:22:40.449Z,25.73
2019-05-20T13:23:40.461Z,25.73
2019-05-20T13:24:40.493Z,25.65
2019-05-20T13:26:40.548Z,25.9
2019-05-20T13:27:40.579Z,25.85
2019-05-20T13:28:40.354Z,25.85
2019-05-20T13:29:40.623Z,25.6
2019-05-20T13:30:40.868Z,25.61
2019-05-20T13:31:40.709Z,25.42
2019-05-20T13:32:40.702Z,25.42
2019-05-20T13:33:55.392Z,25.46
2019-05-20T13:34:40.756Z,25.47
2019-05-20T13:35:40.782Z,25.47
2019-05-20T13:36:40.806Z,25.25
2019-05-20T13:38:40.881Z,25.2
2019-05-20T13:39:40.891Z,25.09
2019-05-20T13:40:51.597Z,25.02
2019-05-20T13:41:40.940Z,24.93
2019-05-20T13:42:40.966Z,25.05
2019-05-20T13:43:41.008Z,25.09
2019-05-20T13:44:41.020Z,25.02
2019-05-20T13:45:40.849Z,24.91
2019-05-20T13:46:41.078Z,24.81
2019-05-20T13:47:55.780Z,24.99